North Loup, Nebraska
Current Conditions -  °F | °C
As of 11:53 AM on Sunday 25 Jan 2015 (Local Time) from KODX Reporting Station
Overcast Overcast  
Wind Chill: 30°   Ceiling: 2300
Heat Index: 39°   Visibility: 10mi
Dew Point: 30°   Wind: 16mph
Humidity: 70%   Direction: 340°NNW
Pressure: 30.05"   Gusts: NA
Location:  41.5°N, 98.77°W
Report Text: KODX 251753Z AUTO 34014KT 10SM OVC023 04/M01 A3005 RMK AO2 SLP188 T00391011 10044 20022 51024 $
Loading
Personal Weather Stations






























Interactive Weather Map New forecast layout! Learn more

10-Day Weather Forecast

Advertisements
Track Severe Weather on mobile